Terminal Aerodrome Forecast
Issued by NWS Detroit/Pontiac, MI

Home | Current Version | Previous Version | Text Only | Print | Product List | Glossary On
Versions: 1 2 3 4 5 6 7 8 9 10 11 12 13 14 15 16 17 18 19 20 21 22 23 24 25 26 27 28 29
000
FTUS43 KDTX 281124
TAFDTW
TAF
KDTW 281124Z 2812/2918 28007KT P6SM SCT040 SCT070
     FM281400 22007KT P6SM SCT035 BKN110
     FM281900 20008KT P6SM BKN050 OVC080
     FM282200 18008KT 3SM -SN BR BKN028 OVC040
     FM290200 19008KT 6SM -SN BKN035 OVC060
     FM290800 18008KT P6SM BKN060 OVC100
     FM291300 19010KT P6SM BKN100=

USA.gov is the U.S. government's official web portal to all federal, state and local government web resources and services.